Time;durP1;ratioP1;P1;durP2;ratioP2;P2;SDS_P1;SDS_P2;PMS_P1;PMS_P2;Temp;Humidity;BMP_temperature;BMP_pressure;BME280_temperature;BME280_humidity;BME280_pressure;Samples;Min_cycle;Max_cycle;Signal;HPM_P1;HPM_P2
2022/02/21 00:00:00;;;;;;;20.20;5.70;;;7.50;99.90;;;;;;6205309;23;20216;-79
2022/02/21 00:02:27;;;;;;;17.43;4.97;;;7.50;99.90;;;;;;6206619;23;20174;-78
2022/02/21 00:04:54;;;;;;;21.33;4.20;;;7.60;99.90;;;;;;6206118;23;20567;-78
2022/02/21 00:07:21;;;;;;;21.17;5.37;;;7.50;99.90;;;;;;6206019;23;20173;-79
2022/02/21 00:09:49;;;;;;;18.03;4.93;;;7.50;99.90;;;;;;6206494;23;20867;-81
2022/02/21 00:12:16;;;;;;;20.90;5.40;;;7.50;99.90;;;;;;6205662;23;20174;-79
2022/02/21 00:14:43;;;;;;;18.00;5.40;;;7.50;99.90;;;;;;6206329;23;20881;-79
2022/02/21 00:17:09;;;;;;;26.53;4.57;;;7.40;99.90;;;;;;6206047;23;20174;-78
2022/02/21 00:19:36;;;;;;;29.60;6.37;;;7.40;99.90;;;;;;6206161;23;20174;-78
2022/02/21 00:22:03;;;;;;;16.80;3.80;;;7.30;99.90;;;;;;6205284;23;20442;-79
2022/02/21 00:24:30;;;;;;;16.87;4.10;;;7.30;99.90;;;;;;6207482;23;20185;-82
2022/02/21 00:26:58;;;;;;;30.40;5.47;;;7.20;99.90;;;;;;6205867;23;20178;-81
2022/02/21 00:29:25;;;;;;;23.40;4.27;;;7.20;99.90;;;;;;6206874;23;20209;-81
2022/02/21 00:31:52;;;;;;;23.23;4.63;;;7.10;99.90;;;;;;6206334;23;20242;-79
2022/02/21 00:34:18;;;;;;;25.50;5.13;;;7.10;99.90;;;;;;6203789;23;20188;-79
2022/02/21 00:36:45;;;;;;;15.73;4.87;;;7.00;99.90;;;;;;6207545;23;20174;-79
2022/02/21 00:39:12;;;;;;;21.20;5.40;;;7.00;99.90;;;;;;6206512;23;20815;-80
2022/02/21 00:41:39;;;;;;;25.83;5.87;;;7.00;99.90;;;;;;6205316;23;20599;-79
2022/02/21 00:44:07;;;;;;;20.10;4.87;;;7.00;99.90;;;;;;6205295;23;20181;-79
2022/02/21 00:46:34;;;;;;;15.33;3.40;;;7.00;99.90;;;;;;6206581;23;20178;-80
2022/02/21 00:49:01;;;;;;;20.27;3.80;;;7.00;99.90;;;;;;6204175;23;20178;-78
2022/02/21 00:51:29;;;;;;;22.93;3.90;;;7.00;99.90;;;;;;6205854;23;20198;-80
2022/02/21 00:53:56;;;;;;;18.67;5.37;;;7.10;99.90;;;;;;6204296;23;20492;-80
2022/02/21 00:56:24;;;;;;;23.37;3.97;;;7.10;99.90;;;;;;6206081;23;20178;-80
2022/02/21 00:58:50;;;;;;;25.03;6.33;;;7.10;99.90;;;;;;6204219;23;20174;-81
2022/02/21 01:01:18;;;;;;;19.60;4.53;;;7.10;99.90;;;;;;6204860;23;20181;-78
2022/02/21 01:03:45;;;;;;;23.47;5.07;;;7.00;99.90;;;;;;6205467;23;20181;-79
2022/02/21 01:06:12;;;;;;;22.43;6.13;;;7.00;99.90;;;;;;6205843;23;20569;-79
2022/02/21 01:08:39;;;;;;;14.50;4.70;;;7.00;99.90;;;;;;6205256;23;20166;-80
2022/02/21 01:11:06;;;;;;;26.63;6.27;;;6.90;99.90;;;;;;6204953;23;20202;-79
2022/02/21 01:13:33;;;;;;;12.20;4.00;;;6.90;99.90;;;;;;6205089;23;20178;-79
2022/02/21 01:15:59;;;;;;;16.47;4.13;;;6.90;99.90;;;;;;6204334;23;20178;-78
2022/02/21 01:18:28;;;;;;;17.73;4.30;;;6.90;99.90;;;;;;6205269;23;20194;-76
2022/02/21 01:20:54;;;;;;;25.90;5.47;;;6.90;99.90;;;;;;6205840;23;20178;-82
2022/02/21 01:23:21;;;;;;;17.53;4.33;;;6.90;99.90;;;;;;6204724;23;20178;-78
2022/02/21 01:25:48;;;;;;;17.33;4.13;;;6.90;99.90;;;;;;6205637;23;20181;-77
2022/02/21 01:28:15;;;;;;;16.83;4.97;;;6.90;99.90;;;;;;6205558;23;20174;-78
2022/02/21 01:30:41;;;;;;;20.13;4.10;;;6.90;99.90;;;;;;6204263;23;20194;-78
2022/02/21 01:33:08;;;;;;;17.40;3.37;;;6.90;99.90;;;;;;6205193;23;20177;-79
2022/02/21 01:35:36;;;;;;;22.73;4.20;;;6.90;99.90;;;;;;6204939;23;20178;-75
2022/02/21 01:38:03;;;;;;;23.10;5.20;;;6.90;99.90;;;;;;6204338;23;20174;-77
2022/02/21 01:40:31;;;;;;;23.63;4.73;;;6.90;99.90;;;;;;6205051;23;20174;-78
2022/02/21 01:42:57;;;;;;;18.20;4.20;;;6.80;99.90;;;;;;6204202;23;20297;-79
2022/02/21 01:45:24;;;;;;;21.00;5.07;;;6.80;99.90;;;;;;6204913;23;20185;-78
2022/02/21 01:47:51;;;;;;;16.93;4.60;;;6.80;99.90;;;;;;6204726;23;20166;-78
2022/02/21 01:50:18;;;;;;;17.77;4.23;;;6.80;99.90;;;;;;6204603;23;20205;-78
2022/02/21 01:52:47;;;;;;;26.03;5.43;;;6.80;99.90;;;;;;6204199;23;20170;-75
2022/02/21 01:55:14;;;;;;;19.07;3.83;;;6.80;99.90;;;;;;6204686;23;20367;-80
2022/02/21 01:57:42;;;;;;;12.93;4.20;;;6.80;99.90;;;;;;6204302;23;20178;-77
2022/02/21 02:00:10;;;;;;;26.30;5.07;;;6.80;99.90;;;;;;6203636;23;20177;-79
2022/02/21 02:02:36;;;;;;;24.47;6.13;;;6.80;99.90;;;;;;6204412;23;20177;-76
2022/02/21 02:05:04;;;;;;;23.40;5.20;;;6.80;99.90;;;;;;6203484;23;20442;-79
2022/02/21 02:07:30;;;;;;;22.73;4.00;;;6.80;99.90;;;;;;6203985;23;20181;-79
2022/02/21 02:09:59;;;;;;;15.03;4.00;;;6.80;99.90;;;;;;6203614;23;20201;-77
2022/02/21 02:12:25;;;;;;;19.17;4.97;;;6.70;99.90;;;;;;6203629;23;20649;-77
2022/02/21 02:14:52;;;;;;;21.13;5.10;;;6.80;99.90;;;;;;6203562;23;20177;-78
2022/02/21 02:17:19;;;;;;;23.63;4.33;;;6.80;99.90;;;;;;6203559;23;20177;-78
2022/02/21 02:19:47;;;;;;;16.80;3.67;;;6.80;99.90;;;;;;6203385;23;20173;-79
2022/02/21 02:22:16;;;;;;;22.67;4.03;;;6.70;99.90;;;;;;6203175;23;20185;-78
2022/02/21 02:24:44;;;;;;;18.20;4.20;;;6.70;99.90;;;;;;6204268;23;20174;-78
2022/02/21 02:27:12;;;;;;;16.60;4.63;;;6.70;99.90;;;;;;6203116;23;20178;-80
2022/02/21 02:29:42;;;;;;;23.70;4.57;;;6.70;99.90;;;;;;6203653;23;20221;-77
2022/02/21 02:32:10;;;;;;;20.87;3.57;;;6.70;99.90;;;;;;6203732;23;20858;-78
2022/02/21 02:34:39;;;;;;;16.73;3.70;;;6.70;99.90;;;;;;6204506;23;20181;-80
2022/02/21 02:37:07;;;;;;;22.17;4.77;;;6.70;99.90;;;;;;6204029;23;20174;-79
2022/02/21 02:39:35;;;;;;;24.73;5.53;;;6.70;99.90;;;;;;6203823;23;20184;-73
2022/02/21 02:42:03;;;;;;;17.30;4.47;;;6.70;99.90;;;;;;6204083;23;20201;-76
2022/02/21 02:44:30;;;;;;;18.47;4.10;;;6.70;99.90;;;;;;6203656;23;20704;-77
2022/02/21 02:46:56;;;;;;;16.37;4.20;;;6.70;99.90;;;;;;6202860;23;20174;-79
2022/02/21 02:49:24;;;;;;;19.50;4.27;;;6.70;99.90;;;;;;6203000;23;20574;-79
2022/02/21 02:51:50;;;;;;;18.67;5.13;;;6.70;99.90;;;;;;6204142;23;20200;-78
2022/02/21 02:54:17;;;;;;;18.97;4.47;;;6.70;99.90;;;;;;6202703;23;20751;-78
2022/02/21 02:56:45;;;;;;;18.40;4.23;;;6.70;99.90;;;;;;6204202;23;20174;-76
2022/02/21 02:59:12;;;;;;;12.17;3.43;;;6.70;99.90;;;;;;6203311;23;20918;-78
2022/02/21 03:01:40;;;;;;;15.73;3.87;;;6.60;99.90;;;;;;6203398;23;20181;-78
2022/02/21 03:04:07;;;;;;;21.20;4.57;;;6.60;99.90;;;;;;6203536;23;20714;-77
2022/02/21 03:06:34;;;;;;;16.63;4.00;;;6.60;99.90;;;;;;6204214;23;20244;-75
2022/02/21 03:09:01;;;;;;;19.10;4.13;;;6.60;99.90;;;;;;6202017;23;20178;-78
2022/02/21 03:11:28;;;;;;;15.63;3.63;;;6.60;99.90;;;;;;6203791;23;20204;-76
2022/02/21 03:13:58;;;;;;;17.70;4.60;;;6.60;99.90;;;;;;6204006;23;20181;-78
2022/02/21 03:16:25;;;;;;;18.63;4.67;;;6.60;99.90;;;;;;6202881;23;20618;-76
2022/02/21 03:18:52;;;;;;;17.10;4.60;;;6.60;99.90;;;;;;6202172;23;20476;-77
2022/02/21 03:21:19;;;;;;;24.90;5.50;;;6.60;99.90;;;;;;6203751;23;20178;-76
2022/02/21 03:23:46;;;;;;;19.53;4.73;;;6.60;99.90;;;;;;6203130;23;20185;-74
2022/02/21 03:26:15;;;;;;;21.33;4.50;;;6.60;99.90;;;;;;6203240;23;20182;-77
2022/02/21 03:28:42;;;;;;;21.23;5.10;;;6.60;99.90;;;;;;6202653;23;20182;-75
2022/02/21 03:31:11;;;;;;;20.37;6.23;;;6.70;99.90;;;;;;6203171;23;20538;-74
2022/02/21 03:33:38;;;;;;;15.53;3.57;;;6.70;99.90;;;;;;6203420;23;20201;-75
2022/02/21 03:36:05;;;;;;;21.40;4.63;;;6.60;99.90;;;;;;6202791;23;20178;-79
2022/02/21 03:38:32;;;;;;;17.37;5.70;;;6.70;99.90;;;;;;6203427;23;20882;-80
2022/02/21 03:40:59;;;;;;;19.23;4.40;;;6.60;99.90;;;;;;6202399;23;20681;-78
2022/02/21 03:43:26;;;;;;;20.97;4.30;;;6.60;99.90;;;;;;6202509;23;20176;-79
2022/02/21 03:45:53;;;;;;;13.07;3.83;;;6.50;99.90;;;;;;6203103;23;20497;-77
2022/02/21 03:48:21;;;;;;;15.17;4.10;;;6.50;99.90;;;;;;6203151;23;20234;-79
2022/02/21 03:50:48;;;;;;;14.13;3.60;;;6.50;99.90;;;;;;6202419;23;20198;-80
2022/02/21 03:53:15;;;;;;;18.67;4.07;;;6.50;99.90;;;;;;6205490;23;20220;-75
2022/02/21 03:55:42;;;;;;;17.50;4.33;;;6.50;99.90;;;;;;6205541;23;20178;-76
2022/02/21 03:58:08;;;;;;;18.93;4.03;;;6.50;99.90;;;;;;6205456;23;20197;-76
2022/02/21 04:00:35;;;;;;;26.63;5.40;;;6.50;99.90;;;;;;6206327;23;20181;-77
2022/02/21 04:03:02;;;;;;;19.00;4.23;;;6.50;99.90;;;;;;6206564;23;20185;-76
2022/02/21 04:05:30;;;;;;;24.53;4.80;;;6.50;99.90;;;;;;6203145;23;20170;-76
2022/02/21 04:07:57;;;;;;;17.43;4.67;;;6.50;99.90;;;;;;6203913;23;20536;-76
2022/02/21 04:10:24;;;;;;;14.23;4.00;;;6.50;99.90;;;;;;6203207;23;20278;-78
2022/02/21 04:12:50;;;;;;;24.30;5.30;;;6.40;99.90;;;;;;6202126;23;20170;-77
2022/02/21 04:15:17;;;;;;;25.70;5.70;;;6.40;99.90;;;;;;6202754;23;20586;-77
2022/02/21 04:17:45;;;;;;;22.43;4.30;;;6.40;99.90;;;;;;6200833;23;21030;-79
2022/02/21 04:20:14;;;;;;;16.23;4.10;;;6.40;99.90;;;;;;6199904;23;20170;-77
2022/02/21 04:22:44;;;;;;;20.90;4.00;;;6.40;99.90;;;;;;6199603;23;20185;-77
2022/02/21 04:25:12;;;;;;;19.43;4.47;;;6.40;99.90;;;;;;6199554;23;20594;-78
2022/02/21 04:27:43;;;;;;;16.80;5.17;;;6.50;99.90;;;;;;6200640;23;20482;-78
2022/02/21 04:30:11;;;;;;;15.17;3.50;;;6.50;99.90;;;;;;6200437;23;20178;-78
2022/02/21 04:32:39;;;;;;;19.53;4.40;;;6.50;99.90;;;;;;6200610;23;20649;-77
2022/02/21 04:35:07;;;;;;;19.60;4.00;;;6.50;99.90;;;;;;6199959;23;20177;-78
2022/02/21 04:37:35;;;;;;;22.30;6.97;;;6.50;99.90;;;;;;6201282;23;20174;-76
2022/02/21 04:40:04;;;;;;;22.70;4.93;;;6.50;99.90;;;;;;6200795;23;20174;-77
2022/02/21 04:42:31;;;;;;;23.23;4.50;;;6.60;99.90;;;;;;6202997;23;20205;-74
2022/02/21 04:44:57;;;;;;;25.60;5.20;;;6.60;99.90;;;;;;6204331;23;20181;-76
2022/02/21 04:47:24;;;;;;;23.60;5.00;;;6.50;99.90;;;;;;6204228;23;20181;-76
2022/02/21 04:49:51;;;;;;;22.77;4.43;;;6.50;99.90;;;;;;6204687;23;20174;-76
2022/02/21 04:52:18;;;;;;;22.97;5.17;;;6.50;99.90;;;;;;6204584;23;20476;-77
2022/02/21 04:54:45;;;;;;;22.83;5.20;;;6.40;99.90;;;;;;6203529;23;20178;-76
2022/02/21 04:57:13;;;;;;;21.10;5.97;;;6.40;99.90;;;;;;6204719;23;20693;-76
2022/02/21 04:59:40;;;;;;;24.60;5.17;;;6.40;99.90;;;;;;6204773;23;20220;-77
2022/02/21 05:02:07;;;;;;;19.93;5.20;;;6.40;99.90;;;;;;6204449;23;20181;-77
2022/02/21 05:04:34;;;;;;;19.43;4.47;;;6.40;99.90;;;;;;6204912;23;20189;-76
2022/02/21 05:07:01;;;;;;;20.40;4.83;;;6.40;99.90;;;;;;6202590;23;20598;-79
2022/02/21 05:09:28;;;;;;;22.37;6.17;;;6.40;99.90;;;;;;6205031;23;20181;-78
2022/02/21 05:11:54;;;;;;;26.43;4.70;;;6.40;99.90;;;;;;6204328;23;20208;-76
2022/02/21 05:14:23;;;;;;;23.43;4.50;;;6.40;99.90;;;;;;6203587;23;20526;-78
2022/02/21 05:16:50;;;;;;;21.50;4.60;;;6.40;99.90;;;;;;6204206;23;20185;-77
2022/02/21 05:19:17;;;;;;;21.97;5.33;;;6.40;99.90;;;;;;6204218;23;20209;-77
2022/02/21 05:21:44;;;;;;;32.77;5.97;;;6.30;99.90;;;;;;6203867;23;20178;-76
2022/02/21 05:24:11;;;;;;;17.40;4.27;;;6.30;99.90;;;;;;6203726;23;20582;-78
2022/02/21 05:26:37;;;;;;;24.30;5.33;;;6.30;99.90;;;;;;6204643;23;20850;-76
2022/02/21 05:29:04;;;;;;;47.43;7.03;;;6.40;99.90;;;;;;6203986;23;20630;-76
2022/02/21 05:31:32;;;;;;;27.07;5.23;;;6.40;99.90;;;;;;6204916;23;20204;-76
2022/02/21 05:33:59;;;;;;;30.57;4.27;;;6.40;99.90;;;;;;6204607;23;20611;-77
2022/02/21 05:36:26;;;;;;;25.03;5.07;;;6.40;99.90;;;;;;6204289;23;20185;-76
2022/02/21 05:38:53;;;;;;;19.00;5.07;;;6.30;99.90;;;;;;6204431;23;20174;-78
2022/02/21 05:41:20;;;;;;;19.73;5.50;;;6.30;99.90;;;;;;6203885;23;20197;-76
2022/02/21 05:43:46;;;;;;;18.03;4.27;;;6.30;99.90;;;;;;6203435;23;20175;-77
2022/02/21 05:46:13;;;;;;;23.37;5.93;;;6.30;99.90;;;;;;6204187;23;20812;-78
2022/02/21 05:48:41;;;;;;;24.80;6.70;;;6.30;99.90;;;;;;6203778;23;20193;-77
2022/02/21 05:51:08;;;;;;;23.53;6.77;;;6.30;99.90;;;;;;6203194;23;20197;-78
2022/02/21 05:53:36;;;;;;;23.80;4.73;;;6.40;99.90;;;;;;6203366;23;20178;-77
2022/02/21 05:56:02;;;;;;;24.00;5.53;;;6.40;99.90;;;;;;6203145;23;20174;-76
2022/02/21 05:58:29;;;;;;;29.43;5.20;;;6.40;99.90;;;;;;6203292;23;20581;-75
2022/02/21 06:00:56;;;;;;;20.10;5.07;;;6.40;99.90;;;;;;6204005;23;20253;-77
2022/02/21 06:03:23;;;;;;;26.00;5.97;;;6.40;99.90;;;;;;6203629;23;20174;-77
2022/02/21 06:05:51;;;;;;;27.03;5.37;;;6.40;99.90;;;;;;6203642;23;20174;-77
2022/02/21 06:08:17;;;;;;;21.57;5.30;;;6.30;99.90;;;;;;6204016;23;20541;-76
2022/02/21 06:10:44;;;;;;;21.00;4.77;;;6.30;99.90;;;;;;6202877;23;20700;-76
2022/02/21 06:13:11;;;;;;;20.23;4.40;;;6.40;99.90;;;;;;6202932;23;20170;-78
2022/02/21 06:15:37;;;;;;;24.43;5.63;;;6.40;99.90;;;;;;6204344;23;20178;-76
2022/02/21 06:18:04;;;;;;;24.63;5.60;;;6.30;99.90;;;;;;6201837;23;20532;-76
2022/02/21 06:20:31;;;;;;;24.03;5.17;;;6.30;99.90;;;;;;6203720;23;20180;-77
2022/02/21 06:22:59;;;;;;;20.30;5.17;;;6.30;99.90;;;;;;6202858;23;20289;-78
2022/02/21 06:25:26;;;;;;;23.50;5.03;;;6.30;99.90;;;;;;6202442;23;20188;-76
2022/02/21 06:27:53;;;;;;;21.23;5.37;;;6.40;99.90;;;;;;6203276;23;20189;-78
2022/02/21 06:30:20;;;;;;;21.70;4.80;;;6.30;99.90;;;;;;6203003;23;20575;-77
2022/02/21 06:32:46;;;;;;;19.80;5.00;;;6.30;99.90;;;;;;6203511;23;20209;-75
2022/02/21 06:35:14;;;;;;;19.57;4.97;;;6.20;99.90;;;;;;6204269;23;20178;-76
2022/02/21 06:37:43;;;;;;;25.17;5.23;;;6.30;99.90;;;;;;6202861;23;20583;-76
2022/02/21 06:40:12;;;;;;;23.30;5.30;;;6.30;99.90;;;;;;6203027;23;20185;-77
2022/02/21 06:42:39;;;;;;;20.90;6.10;;;6.30;99.90;;;;;;6204019;23;20190;-76
2022/02/21 06:45:08;;;;;;;29.17;6.87;;;6.30;99.90;;;;;;6202728;23;20426;-79
2022/02/21 06:47:35;;;;;;;20.43;5.30;;;6.30;99.90;;;;;;6202700;23;20625;-76
2022/02/21 06:50:04;;;;;;;18.23;5.00;;;6.30;99.90;;;;;;6203019;23;20189;-77
2022/02/21 06:52:31;;;;;;;17.63;4.77;;;6.30;99.90;;;;;;6203797;23;20219;-77
2022/02/21 06:54:58;;;;;;;18.17;5.17;;;6.30;99.90;;;;;;6203417;23;20211;-76
2022/02/21 06:57:26;;;;;;;22.60;4.90;;;6.30;99.90;;;;;;6203990;23;20181;-77
2022/02/21 06:59:53;;;;;;;25.60;5.10;;;6.30;99.90;;;;;;6202506;23;20173;-77
2022/02/21 07:02:20;;;;;;;21.30;4.63;;;6.30;99.90;;;;;;6203985;23;20170;-75
2022/02/21 07:04:47;;;;;;;16.50;4.77;;;6.30;99.90;;;;;;6202985;23;20175;-75
2022/02/21 07:07:15;;;;;;;18.87;5.00;;;6.40;99.90;;;;;;6202527;23;20178;-77
2022/02/21 07:09:42;;;;;;;25.43;5.13;;;6.50;99.90;;;;;;6203580;23;20178;-76
2022/02/21 07:12:09;;;;;;;27.57;5.07;;;6.50;99.90;;;;;;6176682;23;20197;-77
2022/02/21 07:14:37;;;;;;;23.13;5.53;;;6.60;99.90;;;;;;6201964;23;20184;-77
2022/02/21 07:17:05;;;;;;;22.67;6.13;;;6.70;99.90;;;;;;6202916;23;20412;-79
2022/02/21 07:19:31;;;;;;;18.90;4.93;;;6.70;99.90;;;;;;6202145;23;20212;-79
2022/02/21 07:21:59;;;;;;;22.50;5.77;;;6.70;99.90;;;;;;6202431;23;20193;-77
2022/02/21 07:24:25;;;;;;;22.33;6.37;;;6.80;99.90;;;;;;6203732;23;20178;-76
2022/02/21 07:26:52;;;;;;;18.37;5.20;;;6.70;99.90;;;;;;6204131;23;20193;-77
2022/02/21 07:29:19;;;;;;;19.77;5.23;;;6.80;99.90;;;;;;6201535;23;20174;-78
2022/02/21 07:31:47;;;;;;;22.33;5.70;;;6.70;99.90;;;;;;6202434;23;20264;-77
2022/02/21 07:34:14;;;;;;;25.50;5.93;;;6.70;99.90;;;;;;6203357;23;20185;-79
2022/02/21 07:36:42;;;;;;;22.77;7.87;;;6.60;99.90;;;;;;6201944;23;20182;-81
2022/02/21 07:39:08;;;;;;;13.73;4.13;;;6.60;99.90;;;;;;6205690;23;20427;-85
2022/02/21 07:41:35;;;;;;;22.50;5.70;;;6.40;99.90;;;;;;6205890;23;20217;-81
2022/02/21 07:44:02;;;;;;;32.23;7.93;;;6.20;99.90;;;;;;6205049;23;20284;-81
2022/02/21 07:46:29;;;;;;;22.83;5.20;;;6.10;99.90;;;;;;6138907;23;20559;-78
2022/02/21 07:48:57;;;;;;;36.57;6.87;;;6.00;99.90;;;;;;6206794;23;20181;-80
2022/02/21 07:51:24;;;;;;;31.07;7.37;;;5.80;99.90;;;;;;6206026;23;20198;-82
2022/02/21 07:53:51;;;;;;;30.50;7.33;;;5.80;99.90;;;;;;6205962;23;20174;-81
2022/02/21 07:56:18;;;;;;;35.47;7.10;;;5.80;99.90;;;;;;6206353;23;20185;-80
2022/02/21 07:58:45;;;;;;;32.43;7.97;;;5.70;99.90;;;;;;6206962;23;20178;-81
2022/02/21 08:01:12;;;;;;;27.30;7.00;;;5.70;99.90;;;;;;6206126;23;20166;-79
2022/02/21 08:03:38;;;;;;;32.77;6.80;;;5.70;99.90;;;;;;6208183;23;20181;-84
2022/02/21 08:06:10;;;;;;;37.17;8.00;;;5.70;99.90;;;;;;6208248;23;20166;-83
2022/02/21 08:08:37;;;;;;;34.00;8.30;;;5.80;99.90;;;;;;6208086;23;20204;-84
2022/02/21 08:11:04;;;;;;;31.67;9.07;;;5.80;99.90;;;;;;6205761;23;20178;-83
2022/02/21 08:13:31;;;;;;;31.40;6.63;;;5.90;99.90;;;;;;6209152;23;20174;-83
2022/02/21 08:15:58;;;;;;;32.00;9.07;;;6.00;99.90;;;;;;6209030;23;20181;-81
2022/02/21 08:18:26;;;;;;;37.70;10.13;;;6.00;99.90;;;;;;6204771;23;20194;-81
2022/02/21 08:20:53;;;;;;;44.23;8.73;;;6.10;99.90;;;;;;6208283;23;20182;-83
2022/02/21 08:23:21;;;;;;;33.47;8.00;;;6.10;99.90;;;;;;6209294;23;20700;-83
2022/02/21 08:25:48;;;;;;;38.43;7.10;;;6.20;99.90;;;;;;6208260;23;20436;-83
2022/02/21 08:28:15;;;;;;;28.00;7.40;;;6.30;99.90;;;;;;6209731;23;20170;-81
2022/02/21 08:30:42;;;;;;;26.67;7.43;;;6.30;99.90;;;;;;6209659;23;20177;-84
2022/02/21 08:33:08;;;;;;;37.90;9.33;;;6.40;99.90;;;;;;6208797;23;20205;-82
2022/02/21 08:35:35;;;;;;;36.10;7.73;;;6.40;99.90;;;;;;6209574;23;20200;-82
2022/02/21 08:38:02;;;;;;;29.13;6.73;;;6.40;99.90;;;;;;6207021;23;20783;-81
2022/02/21 08:40:31;;;;;;;29.30;6.37;;;6.50;99.90;;;;;;6206998;23;20228;-81
2022/02/21 08:42:58;;;;;;;30.27;6.60;;;6.50;99.90;;;;;;6206688;23;20296;-82
2022/02/21 08:45:25;;;;;;;30.87;7.53;;;6.60;99.90;;;;;;6204409;23;20186;-81
2022/02/21 08:47:51;;;;;;;28.07;6.80;;;6.60;99.90;;;;;;6207419;23;20177;-78
2022/02/21 08:50:18;;;;;;;39.37;7.90;;;6.70;99.90;;;;;;6207767;23;20202;-82
2022/02/21 08:52:45;;;;;;;30.30;6.60;;;6.70;99.90;;;;;;6206242;23;20198;-81
2022/02/21 08:55:15;;;;;;;29.50;6.03;;;6.80;99.90;;;;;;6206320;23;20216;-79
2022/02/21 08:57:44;;;;;;;28.13;5.77;;;6.80;99.90;;;;;;6205154;23;20217;-81
2022/02/21 09:00:13;;;;;;;28.73;7.10;;;6.80;99.90;;;;;;6206065;23;20170;-81
2022/02/21 09:02:39;;;;;;;32.30;7.60;;;6.90;99.90;;;;;;6207531;23;20189;-81
2022/02/21 09:05:07;;;;;;;31.50;7.33;;;6.90;99.90;;;;;;6206338;23;20189;-80
2022/02/21 09:07:33;;;;;;;41.50;7.83;;;7.00;99.90;;;;;;6207616;23;20193;-81
2022/02/21 09:10:00;;;;;;;37.77;9.07;;;7.00;99.90;;;;;;6206591;23;20186;-80
2022/02/21 09:12:27;;;;;;;30.50;8.57;;;7.00;99.90;;;;;;6206144;23;20202;-80
2022/02/21 09:14:58;;;;;;;28.63;7.60;;;7.10;99.90;;;;;;6206004;23;20186;-81
2022/02/21 09:17:25;;;;;;;27.33;6.73;;;7.10;99.90;;;;;;6207253;23;20725;-81
2022/02/21 09:19:51;;;;;;;33.63;6.63;;;7.10;99.90;;;;;;6206422;23;20174;-81
2022/02/21 09:22:20;;;;;;;45.27;7.67;;;7.00;99.90;;;;;;6205965;23;20594;-81
2022/02/21 09:24:47;;;;;;;41.83;8.43;;;7.10;99.90;;;;;;6206863;23;20181;-81
2022/02/21 09:27:15;;;;;;;41.33;8.07;;;7.00;99.90;;;;;;6205584;23;20182;-80
2022/02/21 09:29:42;;;;;;;38.47;7.90;;;7.00;99.90;;;;;;6206515;23;20178;-82
2022/02/21 09:32:10;;;;;;;44.53;8.00;;;7.10;99.90;;;;;;6204373;23;20197;-81
2022/02/21 09:34:37;;;;;;;36.97;8.23;;;7.10;99.90;;;;;;6206718;23;20459;-83
2022/02/21 09:37:06;;;;;;;39.57;8.83;;;7.20;99.90;;;;;;6206846;23;20174;-84
2022/02/21 09:39:33;;;;;;;37.70;6.67;;;7.30;99.90;;;;;;6207388;23;20178;-81
2022/02/21 09:42:00;;;;;;;31.13;7.53;;;7.40;99.90;;;;;;6205612;23;20194;-81
2022/02/21 09:44:27;;;;;;;33.43;7.03;;;7.40;99.90;;;;;;6206483;23;20170;-83
2022/02/21 09:46:57;;;;;;;41.90;9.00;;;7.50;99.90;;;;;;6205131;23;20174;-78
2022/02/21 09:49:27;;;;;;;45.63;9.67;;;7.50;99.90;;;;;;6205198;23;20818;-79
2022/02/21 09:51:54;;;;;;;35.27;9.13;;;7.50;99.90;;;;;;6204063;23;20491;-79
2022/02/21 09:54:21;;;;;;;42.83;8.13;;;7.50;99.90;;;;;;6204889;23;20177;-82
2022/02/21 09:56:48;;;;;;;41.77;8.10;;;7.50;99.90;;;;;;6204891;23;20190;-79
2022/02/21 09:59:15;;;;;;;40.47;8.07;;;7.50;99.90;;;;;;6207215;23;20178;-80
2022/02/21 10:01:45;;;;;;;43.13;8.47;;;7.50;99.90;;;;;;6205698;23;20282;-83
2022/02/21 10:04:12;;;;;;;41.50;8.03;;;7.40;99.90;;;;;;6206289;23;20169;-83
2022/02/21 10:06:40;;;;;;;39.20;10.77;;;7.50;99.90;;;;;;6208046;23;20410;-83
2022/02/21 10:09:10;;;;;;;34.93;7.10;;;7.50;99.90;;;;;;6205499;23;20273;-83
2022/02/21 10:11:39;;;;;;;41.43;8.00;;;7.40;99.90;;;;;;6204946;23;20173;-80
2022/02/21 10:14:09;;;;;;;35.77;8.00;;;7.40;99.90;;;;;;6208407;23;20171;-81
2022/02/21 10:16:42;;;;;;;40.17;7.90;;;7.40;99.90;;;;;;6207307;23;20177;-82
2022/02/21 10:19:20;;;;;;;40.10;7.57;;;7.40;99.90;;;;;;6207671;23;20208;-83
2022/02/21 10:21:50;;;;;;;40.80;8.77;;;7.40;99.90;;;;;;6208136;23;20170;-82
2022/02/21 10:24:17;;;;;;;37.07;8.17;;;7.40;99.90;;;;;;6206255;23;20189;-81
2022/02/21 10:26:44;;;;;;;46.63;8.47;;;7.40;99.90;;;;;;6207726;23;20174;-82
2022/02/21 10:29:12;;;;;;;33.67;6.43;;;7.40;99.90;;;;;;6207492;23;20178;-83
2022/02/21 10:31:39;;;;;;;46.63;7.87;;;7.40;99.90;;;;;;6207217;23;20182;-82
2022/02/21 10:34:07;;;;;;;42.37;7.87;;;7.40;99.90;;;;;;6208091;23;20202;-83
2022/02/21 10:36:35;;;;;;;34.43;7.17;;;7.40;99.90;;;;;;6208962;23;20189;-82
2022/02/21 10:39:05;;;;;;;41.60;8.50;;;7.40;99.90;;;;;;6206118;23;20182;-82
2022/02/21 10:41:45;;;;;;;31.47;7.77;;;7.50;99.90;;;;;;6208344;23;20209;-85
2022/02/21 10:44:21;;;;;;;41.00;9.10;;;7.50;99.90;;;;;;6207266;23;20208;-84
2022/02/21 10:47:00;;;;;;;39.87;8.50;;;7.40;99.90;;;;;;6207961;23;20640;-83
2022/02/21 10:49:27;;;;;;;43.67;9.40;;;7.50;99.90;;;;;;6208319;23;20633;-83
2022/02/21 10:51:57;;;;;;;44.97;11.50;;;7.50;99.90;;;;;;6206742;23;20185;-82
2022/02/21 10:54:30;;;;;;;34.80;7.40;;;7.40;99.90;;;;;;6207048;23;20878;-81
2022/02/21 10:56:57;;;;;;;37.83;8.77;;;7.50;99.90;;;;;;6206935;23;20411;-83
2022/02/21 10:59:29;;;;;;;37.80;8.70;;;7.60;99.90;;;;;;6205184;23;20193;-80
2022/02/21 11:01:57;;;;;;;35.10;7.10;;;7.60;99.90;;;;;;6207071;23;20186;-79
2022/02/21 11:04:25;;;;;;;33.50;8.17;;;7.70;99.90;;;;;;6203511;23;20188;-79
2022/02/21 11:06:52;;;;;;;36.13;8.63;;;7.70;99.90;;;;;;6204831;23;20501;-80
2022/02/21 11:09:21;;;;;;;47.63;8.80;;;7.70;99.90;;;;;;6204804;23;20174;-81
2022/02/21 11:11:51;;;;;;;38.40;8.00;;;7.80;99.90;;;;;;6206120;23;20213;-80
2022/02/21 11:14:20;;;;;;;50.33;10.37;;;7.80;99.90;;;;;;6202030;23;20201;-81
2022/02/21 11:16:48;;;;;;;38.77;8.57;;;7.90;99.90;;;;;;6206835;23;20186;-83
2022/02/21 11:19:16;;;;;;;52.47;10.60;;;7.90;99.90;;;;;;6205725;23;20209;-81
2022/02/21 11:21:44;;;;;;;53.47;10.73;;;8.00;99.90;;;;;;6203868;23;20873;-81
2022/02/21 11:24:12;;;;;;;36.80;8.77;;;8.00;99.90;;;;;;6202577;23;20170;-82
2022/02/21 11:26:42;;;;;;;38.53;8.43;;;8.10;99.90;;;;;;6204404;23;20189;-81
2022/02/21 11:29:21;;;;;;;39.93;9.63;;;8.10;99.90;;;;;;6204943;23;20169;-82
2022/02/21 11:31:48;;;;;;;34.57;8.50;;;8.20;99.90;;;;;;6206967;23;20159;-79
2022/02/21 11:34:15;;;;;;;38.70;8.87;;;8.20;99.90;;;;;;6204869;23;20194;-81
2022/02/21 11:36:47;;;;;;;50.73;9.30;;;8.30;99.90;;;;;;6206199;23;20189;-79
2022/02/21 11:39:22;;;;;;;38.10;8.37;;;8.30;99.90;;;;;;6204701;23;20213;-80
2022/02/21 11:42:03;;;;;;;42.83;8.23;;;8.30;99.90;;;;;;6204220;23;20259;-79
2022/02/21 11:44:45;;;;;;;45.17;9.20;;;8.40;99.90;;;;;;6205142;23;20170;-83
2022/02/21 11:47:31;;;;;;;38.17;8.03;;;8.40;99.90;;;;;;6206364;23;20170;-82
2022/02/21 11:49:58;;;;;;;40.70;8.70;;;8.50;99.90;;;;;;6206221;23;20498;-80
2022/02/21 11:52:30;;;;;;;41.23;7.47;;;8.50;99.90;;;;;;6207048;23;20411;-81
2022/02/21 11:54:57;;;;;;;31.87;7.70;;;8.50;99.90;;;;;;6206328;23;20185;-83
2022/02/21 11:57:29;;;;;;;44.53;7.70;;;8.50;99.90;;;;;;6207633;23;20177;-82
2022/02/21 11:59:57;;;;;;;42.37;8.47;;;8.70;99.90;;;;;;6207600;23;20197;-82
2022/02/21 12:02:24;;;;;;;40.17;9.73;;;8.80;99.90;;;;;;6209346;23;20196;-89
2022/02/21 12:04:57;;;;;;;41.57;8.63;;;9.00;99.90;;;;;;6209315;23;20818;-84
2022/02/21 12:07:26;;;;;;;35.20;7.17;;;9.10;99.90;;;;;;6209785;23;20223;-85
2022/02/21 12:10:21;;;;;;;36.93;7.77;;;9.10;99.90;;;;;;6209611;23;20173;-79
2022/02/21 12:13:02;;;;;;;35.53;7.20;;;9.10;99.90;;;;;;6210271;23;20194;-81
2022/02/21 12:15:31;;;;;;;45.40;7.10;;;9.00;99.90;;;;;;6207978;23;20292;-80
2022/02/21 12:18:03;;;;;;;23.53;5.47;;;8.80;99.90;;;;;;6208312;23;20202;-82
2022/02/21 12:20:34;;;;;;;27.00;5.60;;;8.70;99.90;;;;;;6208089;23;20178;-80
2022/02/21 12:23:17;;;;;;;34.53;6.80;;;8.60;99.90;;;;;;6207004;23;20181;-83
2022/02/21 12:26:14;;;;;;;30.50;5.97;;;8.50;99.90;;;;;;6208430;23;20228;-83
2022/02/21 12:28:41;;;;;;;35.70;7.23;;;8.60;99.90;;;;;;6207655;23;20162;-82
2022/02/21 12:31:23;;;;;;;34.27;7.17;;;8.60;99.90;;;;;;6206915;23;20174;-81
2022/02/21 12:33:57;;;;;;;30.23;6.73;;;8.60;99.90;;;;;;6208898;23;20190;-80
2022/02/21 12:36:24;;;;;;;32.27;6.03;;;8.60;99.90;;;;;;6207847;23;20190;-83
2022/02/21 12:38:59;;;;;;;30.13;5.80;;;8.50;99.90;;;;;;6205133;23;20178;-83
2022/02/21 12:41:31;;;;;;;29.70;6.93;;;8.40;99.90;;;;;;6208457;23;20869;-78
2022/02/21 12:44:00;;;;;;;35.17;6.90;;;8.40;99.90;;;;;;6207144;23;20222;-81
2022/02/21 12:46:31;;;;;;;36.73;7.47;;;8.40;99.90;;;;;;6207770;23;20174;-83
2022/02/21 12:48:58;;;;;;;34.50;6.70;;;8.40;99.90;;;;;;6207498;23;20170;-83